Time;durP1;ratioP1;P1;durP2;ratioP2;P2;SDS_P1;SDS_P2;PMS_P1;PMS_P2;Temp;Humidity;BMP_temperature;BMP_pressure;BME280_temperature;BME280_humidity;BME280_pressure;Samples;Min_cycle;Max_cycle;Signal;HPM_P1;HPM_P2
2022/01/30 00:01:41;;;;;;;13.02;4.78;;;;;;;2.90;100.00;100233.56;5072977;28;20040;-70
2022/01/30 00:04:09;;;;;;;12.48;4.85;;;;;;;2.98;100.00;100228.03;5072964;28;20076;-70
2022/01/30 00:06:38;;;;;;;12.02;5.50;;;;;;;3.01;100.00;100222.69;5073214;28;20074;-70
2022/01/30 00:09:14;;;;;;;13.35;4.93;;;;;;;3.00;100.00;100226.25;5073034;28;20052;-70
2022/01/30 00:11:46;;;;;;;12.50;5.03;;;;;;;3.00;100.00;100223.59;5073555;28;20048;-70
2022/01/30 00:14:17;;;;;;;15.50;5.23;;;;;;;3.03;100.00;100221.72;5072888;28;20561;-69
2022/01/30 00:16:46;;;;;;;10.75;4.80;;;;;;;2.97;100.00;100211.38;5073314;28;20075;-69
2022/01/30 00:19:21;;;;;;;13.27;4.95;;;;;;;2.86;100.00;100213.44;5073209;28;20075;-70
2022/01/30 00:21:59;;;;;;;15.32;5.40;;;;;;;2.87;100.00;100200.22;5072883;28;20106;-81
2022/01/30 00:24:43;;;;;;;11.40;5.20;;;;;;;2.99;100.00;100188.50;5072865;28;20075;-70
2022/01/30 00:27:17;;;;;;;;;;;;;;;2.91;100.00;100174.69;5073342;28;20036;-71
2022/01/30 00:29:45;;;;;;;12.23;4.97;;;;;;;2.97;100.00;100155.16;5072846;28;20270;-69
2022/01/30 00:32:14;;;;;;;12.85;5.18;;;;;;;2.98;100.00;100148.97;5072947;28;20095;-71
2022/01/30 00:35:02;;;;;;;14.02;5.43;;;;;;;3.03;100.00;100147.94;5072958;28;20087;-71
2022/01/30 00:37:31;;;;;;;11.27;4.90;;;;;;;3.01;100.00;100143.66;5076985;28;20043;-69
2022/01/30 00:40:18;;;;;;;14.50;5.10;;;;;;;3.16;100.00;100137.88;5076907;28;20157;-70
2022/01/30 00:42:46;;;;;;;8.85;4.45;;;;;;;3.14;100.00;100126.53;5076922;28;20170;-70
2022/01/30 00:45:16;;;;;;;11.38;4.63;;;;;;;3.19;100.00;100126.41;5076638;28;20075;-70
2022/01/30 00:47:45;;;;;;;11.25;4.97;;;;;;;3.14;100.00;100119.47;5076510;28;20455;-70
2022/01/30 00:50:14;;;;;;;10.52;4.32;;;;;;;3.27;100.00;100133.13;5076486;28;20474;-70
2022/01/30 00:52:42;;;;;;;11.90;4.57;;;;;;;3.23;100.00;100118.31;5076695;28;20094;-70
2022/01/30 00:55:10;;;;;;;13.05;5.15;;;;;;;3.27;100.00;100098.84;5076390;28;20047;-70
2022/01/30 00:57:40;;;;;;;13.85;5.68;;;;;;;3.30;100.00;100098.78;5076259;28;20486;-70
2022/01/30 01:00:10;;;;;;;11.52;5.03;;;;;;;3.36;100.00;100105.59;5076296;28;20139;-70
2022/01/30 01:02:38;;;;;;;13.25;4.95;;;;;;;3.23;100.00;100102.50;5076123;28;20105;-70
2022/01/30 01:05:08;;;;;;;11.40;5.07;;;;;;;3.22;100.00;100099.94;5076181;28;20041;-70
2022/01/30 01:07:41;;;;;;;11.23;4.57;;;;;;;3.23;100.00;100081.41;5076475;28;20036;-70
2022/01/30 01:10:15;;;;;;;;;;;;;;;3.26;100.00;100078.66;5076622;28;20416;-70
2022/01/30 01:13:01;;;;;;;;;;;;;;;3.22;100.00;100074.44;5076806;28;19927;-70
2022/01/30 01:23:45;;;;;;;12.07;4.95;;;;;;;3.11;100.00;100079.19;5075855;28;20052;-70
2022/01/30 01:26:15;;;;;;;12.40;5.00;;;;;;;3.14;100.00;100066.75;5075843;28;20079;-71
2022/01/30 01:28:46;;;;;;;15.57;5.68;;;;;;;3.21;100.00;100056.91;5076167;28;20032;-70
2022/01/30 01:31:15;;;;;;;10.27;4.47;;;;;;;3.06;100.00;100047.69;5075793;28;20479;-70
2022/01/30 01:33:59;;;;;;;10.38;4.95;;;;;;;3.16;100.00;100053.53;5075682;28;20131;-70
2022/01/30 01:36:27;;;;;;;12.82;4.82;;;;;;;3.22;100.00;100050.69;5076087;28;20051;-70
2022/01/30 01:38:56;;;;;;;11.02;5.00;;;;;;;3.17;100.00;100039.44;5075593;28;20478;-71
2022/01/30 01:41:26;;;;;;;14.27;4.90;;;;;;;3.21;100.00;100046.34;5075718;28;20528;-70
2022/01/30 01:43:56;;;;;;;9.40;4.80;;;;;;;3.24;100.00;100035.69;5075642;28;20044;-70
2022/01/30 01:46:28;;;;;;;11.32;5.03;;;;;;;3.24;100.00;100025.16;5074945;28;20044;-70
2022/01/30 01:48:57;;;;;;;10.45;4.95;;;;;;;3.23;100.00;100027.84;5074442;28;20040;-71
2022/01/30 01:51:32;;;;;;;10.68;5.10;;;;;;;3.14;100.00;100026.38;5074372;28;20090;-70
2022/01/30 01:54:01;;;;;;;9.50;4.70;;;;;;;3.20;100.00;100007.72;5075398;28;20041;-70
2022/01/30 01:56:30;;;;;;;11.57;4.90;;;;;;;3.16;100.00;99991.13;5075560;28;20405;-70
2022/01/30 01:59:00;;;;;;;9.90;4.50;;;;;;;3.13;100.00;99996.53;5074988;28;20044;-71
2022/01/30 02:01:29;;;;;;;12.27;4.63;;;;;;;3.08;100.00;100002.84;5075332;28;20041;-70
2022/01/30 02:03:58;;;;;;;12.60;4.88;;;;;;;3.00;100.00;99994.34;5075143;28;20074;-71
2022/01/30 02:06:27;;;;;;;12.50;4.88;;;;;;;3.15;100.00;99988.56;5075353;28;20123;-70
2022/01/30 02:08:59;;;;;;;11.55;4.65;;;;;;;3.16;100.00;99977.09;5075042;28;20052;-70
2022/01/30 02:11:35;;;;;;;13.23;5.07;;;;;;;3.06;100.00;99968.63;5075090;28;20087;-70
2022/01/30 02:14:31;;;;;;;11.50;4.45;;;;;;;2.88;100.00;99977.16;5075034;28;20045;-70
2022/01/30 02:25:34;;;;;;;11.18;4.75;;;;;;;2.55;100.00;99964.19;5074521;28;20056;-70
2022/01/30 02:28:08;;;;;;;11.07;4.60;;;;;;;2.53;100.00;99958.13;5074794;28;20165;-70
2022/01/30 02:30:42;;;;;;;12.15;4.80;;;;;;;2.56;100.00;99941.34;5074083;28;20056;-70
2022/01/30 02:33:11;;;;;;;10.35;4.55;;;;;;;2.49;100.00;99939.81;5074714;28;20048;-70
2022/01/30 02:35:39;;;;;;;10.85;5.22;;;;;;;2.41;100.00;99933.94;5074780;28;20409;-70
2022/01/30 02:38:11;;;;;;;11.93;4.65;;;;;;;2.42;100.00;99917.25;5074569;28;20068;-70
2022/01/30 02:40:42;;;;;;;11.27;4.60;;;;;;;2.16;100.00;99921.56;5074386;28;20520;-70
2022/01/30 02:43:13;;;;;;;11.25;4.88;;;;;;;2.07;100.00;99920.97;5074157;28;20124;-70
2022/01/30 02:45:57;;;;;;;13.55;5.00;;;;;;;2.18;100.00;99925.00;5074517;28;20051;-70
2022/01/30 02:48:32;;;;;;;11.98;4.97;;;;;;;2.26;100.00;99922.13;5074558;28;20158;-70
2022/01/30 02:51:10;;;;;;;13.35;5.00;;;;;;;2.21;100.00;99930.16;5074334;28;20439;-71
2022/01/30 02:53:43;;;;;;;10.85;5.07;;;;;;;2.23;100.00;99936.25;5074538;28;20123;-70
2022/01/30 02:56:11;;;;;;;10.60;4.50;;;;;;;2.32;100.00;99926.31;5074194;28;20045;-70
2022/01/30 02:58:40;;;;;;;13.20;5.15;;;;;;;2.53;100.00;99917.75;5073844;28;20052;-70
2022/01/30 03:01:08;;;;;;;15.25;5.35;;;;;;;2.63;100.00;99913.91;5073634;28;20048;-71
2022/01/30 03:03:37;;;;;;;14.38;5.25;;;;;;;2.68;100.00;99911.97;5073782;28;20068;-71
2022/01/30 03:06:05;;;;;;;10.18;5.53;;;;;;;2.51;100.00;99911.66;5074018;28;20045;-71
2022/01/30 03:08:34;;;;;;;11.60;5.20;;;;;;;2.44;100.00;99902.25;5074147;28;20428;-70
2022/01/30 03:11:04;;;;;;;12.23;5.55;;;;;;;2.50;100.00;99896.78;5073458;28;20132;-71
2022/01/30 03:13:32;;;;;;;14.20;5.57;;;;;;;2.42;100.00;99890.94;5073738;28;20489;-70
2022/01/30 03:16:03;;;;;;;15.43;4.85;;;;;;;2.36;100.00;99886.72;5073952;28;20044;-70
2022/01/30 03:18:32;;;;;;;11.55;5.07;;;;;;;2.26;100.00;99896.69;5073964;28;20036;-71
2022/01/30 03:21:01;;;;;;;12.50;4.80;;;;;;;2.14;100.00;99901.47;5073488;28;20044;-70
2022/01/30 03:23:29;;;;;;;10.38;4.90;;;;;;;2.08;100.00;99894.63;5073578;28;20041;-70
2022/01/30 03:25:59;;;;;;;12.82;5.07;;;;;;;2.04;100.00;99890.38;5073826;28;20044;-70
2022/01/30 03:28:30;;;;;;;13.35;5.47;;;;;;;1.91;100.00;99883.75;5073843;28;20075;-70
2022/01/30 03:31:02;;;;;;;13.18;5.13;;;;;;;1.82;100.00;99869.09;5073990;28;20111;-70
2022/01/30 03:33:31;;;;;;;10.88;5.07;;;;;;;1.80;100.00;99865.69;5073309;28;20057;-71
2022/01/30 03:36:01;;;;;;;15.68;5.35;;;;;;;1.96;100.00;99837.13;5073707;28;20079;-70
2022/01/30 03:38:34;;;;;;;11.07;5.00;;;;;;;1.97;100.00;99834.47;5073821;28;20410;-71
2022/01/30 03:41:03;;;;;;;13.35;5.13;;;;;;;1.87;100.00;99834.78;5073047;28;20052;-73
2022/01/30 03:43:33;;;;;;;10.98;4.65;;;;;;;1.96;100.00;99826.63;5073127;28;20068;-70
2022/01/30 03:46:01;;;;;;;13.13;4.75;;;;;;;2.29;100.00;99796.56;5073521;28;20060;-70
2022/01/30 03:48:30;;;;;;;8.52;3.25;;;;;;;2.91;100.00;99804.97;5073460;28;20280;-70
2022/01/30 03:50:58;;;;;;;5.75;2.80;;;;;;;3.78;100.00;99810.47;5073409;28;20044;-70
2022/01/30 03:53:26;;;;;;;5.05;2.45;;;;;;;4.14;100.00;99817.78;5073204;28;20125;-70
2022/01/30 03:55:54;;;;;;;5.53;2.60;;;;;;;4.41;100.00;99826.38;5073341;28;20048;-70
2022/01/30 03:58:23;;;;;;;4.20;2.40;;;;;;;4.70;100.00;99814.56;5073115;28;20047;-70
2022/01/30 04:00:53;;;;;;;6.20;2.47;;;;;;;4.70;100.00;99799.56;5073474;28;20047;-70
2022/01/30 04:03:21;;;;;;;4.85;2.28;;;;;;;4.73;100.00;99806.50;5073289;28;20123;-71
2022/01/30 04:05:50;;;;;;;5.22;2.35;;;;;;;4.76;100.00;99793.19;5074211;28;20048;-69
2022/01/30 04:08:19;;;;;;;5.07;2.17;;;;;;;4.90;100.00;99788.13;5073079;28;20041;-69
2022/01/30 04:10:47;;;;;;;5.15;2.25;;;;;;;4.91;100.00;99779.28;5072156;28;20127;-69
2022/01/30 04:13:16;;;;;;;4.55;2.22;;;;;;;4.85;100.00;99782.22;5071678;28;20489;-71
2022/01/30 04:15:44;;;;;;;4.78;2.38;;;;;;;4.90;100.00;99782.84;5072905;28;20044;-69
2022/01/30 04:18:15;;;;;;;5.95;2.50;;;;;;;4.73;100.00;99780.09;5072996;28;20131;-71
2022/01/30 04:20:47;;;;;;;6.83;2.50;;;;;;;4.67;100.00;99778.59;5073146;28;20040;-69
2022/01/30 04:23:16;;;;;;;5.03;2.45;;;;;;;4.55;100.00;99790.53;5072851;28;20072;-70
2022/01/30 04:25:44;;;;;;;4.82;2.50;;;;;;;4.51;100.00;99788.94;5073186;28;20037;-70
2022/01/30 04:28:13;;;;;;;6.15;2.50;;;;;;;4.50;100.00;99792.50;5072848;28;20439;-69
2022/01/30 04:30:43;;;;;;;6.93;2.60;;;;;;;4.25;100.00;99789.22;5073300;28;20079;-69
2022/01/30 04:33:11;;;;;;;7.68;3.20;;;;;;;4.11;100.00;99792.41;5073001;28;20119;-70
2022/01/30 04:35:42;;;;;;;7.97;3.33;;;;;;;3.97;100.00;99794.75;5073195;28;20393;-70
2022/01/30 04:38:23;;;;;;;6.32;3.15;;;;;;;4.07;100.00;99789.97;5072801;28;20131;-70
2022/01/30 04:57:50;;;;;;;1.33;0.80;;;;;;;5.94;100.00;99807.16;5072654;28;20127;-70
2022/01/30 05:03:24;;;;;;;1.15;0.70;;;;;;;6.41;100.00;99767.75;5072740;28;20048;-71
2022/01/30 05:06:02;;;;;;;2.00;0.95;;;;;;;6.54;100.00;99757.38;5072786;28;20374;-70
2022/01/30 05:08:32;;;;;;;0.88;0.68;;;;;;;6.45;100.00;99748.09;5072461;28;20448;-70
2022/01/30 05:11:05;;;;;;;1.45;0.70;;;;;;;6.42;100.00;99747.41;5072732;28;20098;-70
2022/01/30 05:13:37;;;;;;;1.43;0.93;;;;;;;6.39;100.00;99742.28;5072551;28;20048;-69
2022/01/30 05:16:06;;;;;;;1.77;1.10;;;;;;;6.28;100.00;99743.69;5072669;28;20661;-71
2022/01/30 05:18:35;;;;;;;1.23;0.95;;;;;;;6.45;100.00;99741.94;5072613;28;20041;-71
2022/01/30 05:21:03;;;;;;;2.60;1.20;;;;;;;6.45;100.00;99752.53;5072242;28;20040;-69
2022/01/30 05:23:35;;;;;;;2.28;1.20;;;;;;;6.42;100.00;99747.41;5075816;28;20483;-71
2022/01/30 05:26:09;;;;;;;1.98;1.02;;;;;;;6.36;100.00;99753.84;5075856;28;20452;-69
2022/01/30 05:28:38;;;;;;;2.03;1.40;;;;;;;6.41;100.00;99751.84;5076074;28;20051;-70
2022/01/30 05:31:07;;;;;;;2.05;1.08;;;;;;;6.41;100.00;99772.19;5075874;28;20066;-68
2022/01/30 05:33:35;;;;;;;2.30;1.42;;;;;;;6.46;100.00;99752.44;5075485;28;20061;-69
2022/01/30 05:36:04;;;;;;;2.97;1.20;;;;;;;6.37;100.00;99766.19;5075937;28;20044;-69
2022/01/30 05:38:34;;;;;;;2.22;1.30;;;;;;;6.34;100.00;99760.19;5075619;28;20047;-70
2022/01/30 05:41:03;;;;;;;2.60;1.30;;;;;;;6.27;100.00;99767.56;5075855;28;20043;-70
2022/01/30 05:43:33;;;;;;;3.53;1.65;;;;;;;6.26;100.00;99774.66;5075170;28;20070;-70
2022/01/30 05:46:11;;;;;;;3.70;1.95;;;;;;;6.15;100.00;99779.63;5075723;28;20093;-69
2022/01/30 05:48:40;;;;;;;4.35;2.00;;;;;;;6.05;100.00;99773.06;5075818;28;20060;-70
2022/01/30 05:51:11;;;;;;;3.92;2.03;;;;;;;6.10;100.00;99767.56;5075429;28;20044;-79
2022/01/30 05:53:40;;;;;;;3.47;1.80;;;;;;;6.18;100.00;99791.88;5075539;28;20048;-70
2022/01/30 05:56:11;;;;;;;3.03;1.50;;;;;;;6.13;100.00;99778.84;5075565;28;20115;-70
2022/01/30 05:58:40;;;;;;;3.03;1.77;;;;;;;6.11;100.00;99778.09;5075720;28;20045;-69
2022/01/30 06:01:08;;;;;;;2.28;1.35;;;;;;;6.13;100.00;99778.84;5073944;28;20477;-70
2022/01/30 06:03:36;;;;;;;3.78;1.83;;;;;;;6.05;100.00;99778.38;5074910;28;20044;-70
2022/01/30 06:06:07;;;;;;;3.03;1.65;;;;;;;6.01;100.00;99785.63;5075081;28;20123;-70
2022/01/30 06:08:45;;;;;;;2.38;1.50;;;;;;;6.04;100.00;99803.13;5074905;28;20508;-71
2022/01/30 06:11:16;;;;;;;3.42;1.92;;;;;;;5.91;100.00;99788.78;5074865;28;20526;-71
2022/01/30 06:13:44;;;;;;;1.77;1.27;;;;;;;5.80;100.00;99786.63;5075128;28;20124;-70
2022/01/30 06:16:12;;;;;;;3.88;1.48;;;;;;;5.73;100.00;99785.19;5075155;28;20041;-70
2022/01/30 06:18:40;;;;;;;3.22;2.05;;;;;;;5.64;100.00;99810.31;5074836;28;20044;-70
2022/01/30 06:21:09;;;;;;;3.03;1.65;;;;;;;5.57;100.00;99787.69;5075079;28;20041;-70
2022/01/30 06:23:40;;;;;;;4.22;1.90;;;;;;;5.61;100.00;99809.59;5074696;28;20564;-70
2022/01/30 06:26:08;;;;;;;3.45;2.05;;;;;;;5.69;100.00;99808.31;5074722;28;20188;-70
2022/01/30 06:28:38;;;;;;;3.38;1.75;;;;;;;5.69;100.00;99826.84;5074718;28;20045;-70
2022/01/30 06:31:06;;;;;;;1.90;1.17;;;;;;;5.82;100.00;99827.09;5074777;28;20430;-71
2022/01/30 06:33:34;;;;;;;3.85;1.75;;;;;;;5.81;100.00;99824.53;5073782;28;20059;-70
2022/01/30 06:36:03;;;;;;;3.10;1.30;;;;;;;5.77;100.00;99801.78;5074838;28;20044;-70
2022/01/30 06:38:31;;;;;;;2.97;1.50;;;;;;;5.65;100.00;99804.09;5074468;28;20049;-70
2022/01/30 06:41:00;;;;;;;2.58;1.60;;;;;;;5.50;100.00;99810.09;5074690;28;20040;-70
2022/01/30 06:43:28;;;;;;;1.67;1.20;;;;;;;5.41;100.00;99805.25;5074378;28;20158;-70
2022/01/30 06:45:58;;;;;;;2.28;1.35;;;;;;;5.40;100.00;99803.50;5074623;28;20390;-70
2022/01/30 06:48:26;;;;;;;2.90;1.27;;;;;;;5.36;100.00;99829.25;5074285;28;20124;-70
2022/01/30 06:50:54;;;;;;;1.42;1.00;;;;;;;5.49;100.00;99816.28;5074407;28;20417;-70
2022/01/30 06:53:24;;;;;;;3.10;1.20;;;;;;;5.56;100.00;99817.75;5074003;28;20044;-70
2022/01/30 06:55:52;;;;;;;3.40;1.13;;;;;;;5.53;100.00;99815.25;5074394;28;20071;-70
2022/01/30 06:58:23;;;;;;;2.67;1.30;;;;;;;5.51;100.00;99830.34;5074178;28;20489;-70
2022/01/30 07:00:51;;;;;;;1.20;0.73;;;;;;;5.55;100.00;99821.31;5074293;28;20041;-70
2022/01/30 07:03:21;;;;;;;2.20;1.17;;;;;;;5.55;100.00;99813.38;5074246;28;20086;-70
2022/01/30 07:05:49;;;;;;;2.58;1.00;;;;;;;5.52;100.00;99813.53;5074114;28;20044;-70
2022/01/30 07:08:17;;;;;;;2.15;1.17;;;;;;;5.46;100.00;99809.38;5073908;28;20051;-71
2022/01/30 07:10:46;;;;;;;2.10;1.30;;;;;;;5.45;100.00;99801.50;5073975;28;20049;-70
2022/01/30 07:13:14;;;;;;;2.80;1.40;;;;;;;5.42;100.00;99797.22;5073710;28;20535;-70
2022/01/30 07:15:42;;;;;;;3.85;1.40;;;;;;;5.52;100.00;99792.38;5073687;28;20124;-70
2022/01/30 07:18:11;;;;;;;3.15;1.40;;;;;;;5.54;100.00;99784.34;5073976;28;20071;-70
2022/01/30 07:20:40;;;;;;;3.65;1.40;;;;;;;5.54;100.00;99771.13;5073664;28;20094;-70
2022/01/30 07:23:08;;;;;;;3.67;1.65;;;;;;;5.62;100.00;99785.72;5073808;28;20045;-70
2022/01/30 07:25:37;;;;;;;2.55;1.10;;;;;;;5.67;100.00;99767.81;5073214;28;20043;-70
2022/01/30 07:28:05;;;;;;;3.63;1.30;;;;;;;5.78;100.00;99791.13;5073725;28;20039;-70
2022/01/30 07:30:34;;;;;;;1.92;1.10;;;;;;;5.90;100.00;99781.75;5073531;28;20045;-70
2022/01/30 07:33:03;;;;;;;2.00;0.85;;;;;;;5.94;100.00;99767.47;5073791;28;20262;-71
2022/01/30 07:35:32;;;;;;;2.50;0.98;;;;;;;5.98;100.00;99776.94;5073558;28;20102;-69
2022/01/30 07:38:02;;;;;;;2.45;0.90;;;;;;;6.07;100.00;99773.00;5073526;28;20044;-69
2022/01/30 07:40:32;;;;;;;2.53;0.90;;;;;;;6.09;100.00;99765.88;5073152;28;20040;-70
2022/01/30 07:43:00;;;;;;;1.55;0.70;;;;;;;6.22;100.00;99817.28;5073575;28;20044;-70
2022/01/30 07:45:28;;;;;;;1.70;0.90;;;;;;;6.27;100.00;99738.44;5072024;28;20044;-69
2022/01/30 07:47:57;;;;;;;1.27;0.60;;;;;;;6.35;100.00;99780.44;5073573;28;20037;-70
2022/01/30 07:50:25;;;;;;;1.38;0.73;;;;;;;6.38;100.00;99767.06;5071911;28;20045;-71
2022/01/30 07:52:53;;;;;;;2.60;1.20;;;;;;;6.37;100.00;99786.50;5073549;28;20044;-71
2022/01/30 07:55:23;;;;;;;1.55;0.88;;;;;;;6.37;100.00;99802.41;5073262;28;20457;-71
2022/01/30 07:57:51;;;;;;;1.38;0.73;;;;;;;6.45;100.00;99779.88;5073431;28;20401;-70
2022/01/30 08:00:20;;;;;;;3.65;0.82;;;;;;;6.52;100.00;99822.84;5073353;28;20047;-70
2022/01/30 08:02:50;;;;;;;3.75;0.82;;;;;;;6.52;100.00;99788.38;5073377;28;20072;-70
2022/01/30 08:05:18;;;;;;;3.22;0.98;;;;;;;6.57;100.00;99805.78;5071653;28;20079;-70
2022/01/30 08:07:47;;;;;;;2.92;0.90;;;;;;;6.60;100.00;99807.41;5072888;28;20110;-70
2022/01/30 08:10:15;;;;;;;3.47;0.85;;;;;;;6.69;100.00;99825.50;5072975;28;20074;-70
2022/01/30 08:12:45;;;;;;;4.40;0.80;;;;;;;6.76;100.00;99842.81;5073023;28;20131;-70
2022/01/30 08:15:13;;;;;;;3.42;1.10;;;;;;;6.81;100.00;99839.91;5072880;28;20467;-70
2022/01/30 08:17:42;;;;;;;2.35;0.85;;;;;;;6.98;100.00;99862.91;5073002;28;20052;-70
2022/01/30 08:20:10;;;;;;;4.35;0.82;;;;;;;7.01;100.00;99836.22;5073093;28;20127;-70
2022/01/30 08:22:47;;;;;;;1.83;0.85;;;;;;;7.06;100.00;99858.94;5072649;28;20102;-70
2022/01/30 08:25:15;;;;;;;2.63;1.00;;;;;;;7.08;100.00;99840.28;5073106;28;20047;-70
2022/01/30 08:27:49;;;;;;;3.10;0.80;;;;;;;7.06;100.00;99896.06;5072676;28;20064;-70
2022/01/30 08:30:18;;;;;;;2.35;0.80;;;;;;;7.08;100.00;99837.63;5072986;28;20470;-70
2022/01/30 08:32:48;;;;;;;3.60;1.17;;;;;;;7.02;100.00;99840.59;5072827;28;20044;-70
2022/01/30 08:35:17;;;;;;;6.20;0.93;;;;;;;7.08;100.00;99842.94;5072976;28;20057;-70
2022/01/30 08:37:46;;;;;;;2.28;0.68;;;;;;;7.07;100.00;99844.72;5072707;28;20111;-70
2022/01/30 08:40:17;;;;;;;2.38;0.90;;;;;;;7.09;100.00;99828.72;5072897;28;20406;-70
2022/01/30 08:42:48;;;;;;;2.38;0.90;;;;;;;7.13;100.00;99854.16;5072664;28;20098;-70
2022/01/30 08:45:18;;;;;;;3.83;1.23;;;;;;;7.16;100.00;99864.63;5072782;28;20390;-70
2022/01/30 08:47:50;;;;;;;2.22;0.90;;;;;;;7.25;100.00;99847.38;5072600;28;20072;-70
2022/01/30 08:50:20;;;;;;;3.70;0.85;;;;;;;7.25;100.00;99844.72;5072733;28;20047;-70
2022/01/30 08:52:49;;;;;;;2.47;1.20;;;;;;;7.28;100.00;99848.03;5072266;28;20055;-70
2022/01/30 08:55:19;;;;;;;4.65;1.02;;;;;;;7.31;100.00;99861.13;5072676;28;20486;-70
2022/01/30 08:57:49;;;;;;;1.25;0.63;;;;;;;7.41;100.00;99848.25;5075331;28;20054;-70
2022/01/30 09:00:18;;;;;;;3.30;0.55;;;;;;;7.43;100.00;99849.91;5076298;28;20045;-70
2022/01/30 09:02:46;;;;;;;2.63;1.05;;;;;;;7.42;100.00;99874.69;5076290;28;20079;-70
2022/01/30 09:05:14;;;;;;;5.05;1.38;;;;;;;7.49;100.00;99877.03;5076058;28;20068;-70
2022/01/30 09:07:43;;;;;;;4.82;0.90;;;;;;;7.47;100.00;99856.75;5076204;28;20402;-70
2022/01/30 09:10:12;;;;;;;2.75;1.17;;;;;;;7.45;100.00;99869.25;5076345;28;20123;-70
2022/01/30 09:12:43;;;;;;;3.33;1.27;;;;;;;7.48;100.00;99862.91;5076175;28;20124;-70
2022/01/30 09:15:15;;;;;;;5.03;0.95;;;;;;;7.53;100.00;99873.25;5076704;28;20037;-69
2022/01/30 09:17:44;;;;;;;3.42;1.35;;;;;;;7.52;100.00;99868.91;5075809;28;20068;-70
2022/01/30 09:20:12;;;;;;;3.67;1.02;;;;;;;7.55;100.00;99828.94;5076232;28;20049;-70
2022/01/30 09:22:41;;;;;;;2.78;0.75;;;;;;;7.52;99.34;99858.28;5075890;28;20090;-69
2022/01/30 09:25:11;;;;;;;4.10;1.00;;;;;;;7.59;97.86;99851.72;5075731;28;20046;-71
2022/01/30 09:27:39;;;;;;;2.38;0.88;;;;;;;7.58;98.49;99836.72;5076417;28;20047;-71
2022/01/30 09:30:09;;;;;;;2.55;1.00;;;;;;;7.62;96.63;99807.25;5075902;28;20119;-70
2022/01/30 09:32:41;;;;;;;1.27;0.82;;;;;;;7.59;94.96;99822.50;5074702;28;20075;-71
2022/01/30 09:35:10;;;;;;;2.47;0.88;;;;;;;7.65;94.07;99790.34;5076050;28;20470;-71
2022/01/30 09:37:38;;;;;;;2.33;0.70;;;;;;;7.62;88.34;99814.38;5075662;28;20045;-70
2022/01/30 09:40:09;;;;;;;3.28;1.23;;;;;;;7.63;86.36;99845.31;5075970;28;20040;-71
2022/01/30 09:42:39;;;;;;;1.50;0.60;;;;;;;7.64;84.45;99808.06;5075221;28;20040;-71
2022/01/30 09:45:10;;;;;;;1.33;0.70;;;;;;;7.72;81.31;99897.88;5074631;28;20477;-70
2022/01/30 09:47:39;;;;;;;2.60;1.02;;;;;;;7.63;76.27;99824.06;5075533;28;20048;-70
2022/01/30 09:50:10;;;;;;;5.88;1.13;;;;;;;7.65;74.28;99840.75;5075675;28;20044;-70
2022/01/30 09:52:39;;;;;;;3.88;0.95;;;;;;;7.66;75.03;99802.66;5075155;28;20525;-71
2022/01/30 09:55:09;;;;;;;5.82;1.05;;;;;;;7.57;75.03;99838.53;5075526;28;20045;-70
2022/01/30 09:57:38;;;;;;;1.52;0.60;;;;;;;7.59;72.87;99849.06;5075432;28;20044;-70
2022/01/30 10:00:09;;;;;;;4.63;1.20;;;;;;;7.69;72.37;99839.66;5075191;28;20098;-70
2022/01/30 10:02:41;;;;;;;1.58;0.63;;;;;;;7.82;71.28;99840.69;5075425;28;20055;-71
2022/01/30 10:05:13;;;;;;;4.32;0.80;;;;;;;7.78;71.07;99825.88;5075441;28;20044;-70
2022/01/30 10:07:44;;;;;;;6.07;1.73;;;;;;;7.91;72.25;99834.88;5074575;28;20048;-70
2022/01/30 10:10:16;;;;;;;3.97;0.77;;;;;;;7.95;72.01;99817.81;5074643;28;20041;-70
2022/01/30 10:13:03;;;;;;;3.37;1.20;;;;;;;7.88;72.33;99840.34;5074777;28;20474;-70
2022/01/30 10:15:32;;;;;;;3.20;1.15;;;;;;;7.74;73.79;99858.84;5075040;28;20047;-70
2022/01/30 10:18:06;;;;;;;1.20;0.57;;;;;;;7.77;74.62;99858.66;5075130;28;20048;-70
2022/01/30 10:20:39;;;;;;;6.10;1.63;;;;;;;7.50;74.89;99913.25;5075065;28;20044;-83
2022/01/30 10:23:09;;;;;;;1.50;0.70;;;;;;;7.13;74.87;99864.75;5074936;28;20048;-70
2022/01/30 10:25:41;;;;;;;2.92;0.85;;;;;;;7.05;75.75;99865.19;5074509;28;20375;-71
2022/01/30 10:28:11;;;;;;;4.00;0.98;;;;;;;6.97;76.16;99861.22;5074753;28;20094;-69
2022/01/30 10:30:42;;;;;;;0.63;0.60;;;;;;;6.82;74.16;99884.91;5074632;28;20402;-70
2022/01/30 10:33:13;;;;;;;1.15;0.70;;;;;;;6.82;73.70;99879.59;5074535;28;20076;-70
2022/01/30 10:35:53;;;;;;;14.85;2.13;;;;;;;6.70;72.72;99859.00;5074309;28;20068;-71
2022/01/30 10:38:25;;;;;;;2.28;0.90;;;;;;;6.69;72.25;99867.91;5074771;28;20440;-70
2022/01/30 10:40:55;;;;;;;4.60;1.02;;;;;;;6.69;72.15;99846.69;5073137;28;20056;-70
2022/01/30 10:43:24;;;;;;;1.00;0.60;;;;;;;6.78;72.29;99855.97;5074714;28;20045;-70
2022/01/30 10:45:52;;;;;;;4.80;1.35;;;;;;;6.91;71.87;99856.22;5074193;28;20049;-69
2022/01/30 10:48:21;;;;;;;2.65;0.88;;;;;;;6.88;71.61;99866.03;5074198;28;20047;-70
2022/01/30 10:50:51;;;;;;;3.30;0.75;;;;;;;6.80;71.92;99828.44;5074278;28;20064;-68
2022/01/30 10:53:22;;;;;;;1.65;0.88;;;;;;;6.92;72.81;99836.72;5075008;28;20090;-70
2022/01/30 10:55:51;;;;;;;2.28;0.93;;;;;;;6.85;73.55;99826.44;5074179;28;20040;-70
2022/01/30 10:58:21;;;;;;;4.18;1.38;;;;;;;6.82;74.31;99829.22;5074363;28;20098;-70
2022/01/30 11:00:52;;;;;;;2.25;0.77;;;;;;;6.87;74.33;99834.31;5073779;28;20052;-71
2022/01/30 11:03:44;;;;;;;0.98;0.43;;;;;;;6.99;74.73;99830.16;5074545;28;20048;-71
2022/01/30 11:06:15;;;;;;;2.00;0.73;;;;;;;7.16;73.89;99830.13;5074235;28;20371;-70
2022/01/30 11:08:46;;;;;;;2.67;0.73;;;;;;;7.16;73.60;99814.22;5074041;28;20379;-71
2022/01/30 11:11:26;;;;;;;1.45;0.75;;;;;;;7.13;71.86;99798.44;5072959;28;20547;-70
2022/01/30 11:14:17;;;;;;;6.72;0.98;;;;;;;7.22;71.29;99811.22;5073860;28;20128;-70
2022/01/30 11:17:07;;;;;;;8.93;1.50;;;;;;;7.28;69.78;99824.16;5073813;28;20040;-71
2022/01/30 11:19:38;;;;;;;2.72;0.90;;;;;;;7.36;67.52;99795.44;5073315;28;20064;-70
2022/01/30 11:22:10;;;;;;;4.78;0.60;;;;;;;7.47;67.28;99832.84;5074079;28;20478;-70
2022/01/30 11:24:45;;;;;;;1.92;0.60;;;;;;;7.47;68.22;99834.66;5073939;28;20401;-71
2022/01/30 11:27:15;;;;;;;6.65;1.25;;;;;;;7.53;69.06;99828.13;5073786;28;20086;-70
2022/01/30 11:29:44;;;;;;;5.43;0.90;;;;;;;7.55;68.65;99852.81;5073188;28;20045;-72
2022/01/30 11:32:12;;;;;;;5.30;1.00;;;;;;;7.37;67.48;99807.75;5073509;28;20044;-70
2022/01/30 11:34:43;;;;;;;5.82;1.23;;;;;;;7.25;68.44;99805.78;5073400;28;20057;-70
2022/01/30 11:37:15;;;;;;;1.30;0.50;;;;;;;7.33;68.10;99839.81;5073602;28;20041;-70
2022/01/30 11:39:46;;;;;;;6.93;1.27;;;;;;;7.44;66.78;99858.72;5073171;28;20041;-73
2022/01/30 11:42:19;;;;;;;4.00;0.95;;;;;;;7.45;66.53;99868.38;5071852;28;20052;-70
2022/01/30 11:44:50;;;;;;;5.85;1.23;;;;;;;7.16;71.82;99873.44;5073357;28;20044;-71
2022/01/30 11:47:46;;;;;;;4.80;0.98;;;;;;;7.06;70.55;99856.28;5073583;28;20037;-71
2022/01/30 11:50:18;;;;;;;2.50;1.00;;;;;;;7.12;71.18;99871.00;5073616;28;20128;-71
2022/01/30 11:52:59;;;;;;;2.55;0.80;;;;;;;6.97;71.78;99834.69;5073025;28;20036;-71
2022/01/30 11:55:59;;;;;;;0.82;0.60;;;;;;;7.18;70.59;99846.81;5073248;28;20490;-70
2022/01/30 11:58:58;;;;;;;2.17;1.05;;;;;;;7.35;70.80;99836.19;5073530;28;20048;-70
2022/01/30 12:01:38;;;;;;;7.43;1.42;;;;;;;7.36;69.35;99837.88;5073499;28;20055;-71
2022/01/30 12:04:15;;;;;;;4.68;1.20;;;;;;;7.60;68.76;99862.22;5073110;28;20534;-71
2022/01/30 12:06:47;;;;;;;2.95;0.90;;;;;;;7.43;67.92;99933.94;5072837;28;20036;-71
2022/01/30 12:09:29;;;;;;;6.90;1.10;;;;;;;7.29;68.31;99863.03;5073409;28;20457;-73
2022/01/30 12:12:08;;;;;;;1.67;0.68;;;;;;;7.29;68.21;99856.88;5072854;28;20045;-75
2022/01/30 12:14:55;;;;;;;2.85;0.70;;;;;;;7.44;67.41;99867.53;5073122;28;20051;-75
2022/01/30 12:17:50;;;;;;;5.97;0.73;;;;;;;7.51;64.61;99873.34;5073099;28;20051;-75
2022/01/30 12:20:20;;;;;;;4.20;0.90;;;;;;;7.63;63.83;99863.88;5073116;28;20101;-74
2022/01/30 12:22:49;;;;;;;4.07;1.02;;;;;;;7.70;63.39;99871.41;5073054;28;20068;-76
2022/01/30 12:25:35;;;;;;;3.38;0.95;;;;;;;7.58;63.86;99855.31;5072801;28;20080;-76
2022/01/30 12:28:14;;;;;;;2.10;0.63;;;;;;;7.51;64.14;99893.72;5072996;28;20044;-76